Flight Track Log - Related Links

Times and Time Zones

All times are in EDT time to prevent confusion due to time zone crossing. See the CTL13 flight status page for this flight to view local times or setup timezone preferences in your user account.

Time Position Orientation Groundspeed Altitude Reporting Facility
EDT Latitude Longitude Course Direction KTS MPH feet Rate Location/Type
Thu 08:18:30 PM 39.8667 -86.2833 360° North 142 163 1,700  Level Indianapolis TRACON
Thu 08:19:00 PM 39.8833 -86.2833 360° North 153 176 2,000 533 Climbing Indianapolis TRACON
Thu 08:20:00 PM 39.9333 -86.3000 346° North 169 194 2,500 550 Climbing Indianapolis TRACON
Thu 08:21:00 PM 39.9833 -86.2833 14° North 170 196 3,100 600 Climbing Indianapolis TRACON
Thu 08:22:00 PM 40.0167 -86.2667 21° North 163 188 3,700 579 Climbing Indianapolis TRACON
Thu 08:24:17 PM 40.1278 -86.2622 North 170 196 5,000 515 Climbing Indianapolis Center
Thu 08:25:18 PM 40.1742 -86.2744 349° North 170 196 5,400 439 Climbing Indianapolis Center
Thu 08:26:20 PM 40.2206 -86.2897 346° North 171 197 5,900 468 Climbing Indianapolis Center
Thu 08:26:35 PM 40.2336 -86.2953 342° North 170 196 6,000 79 Climbing Chicago Center
Thu 08:27:36 PM 40.2853 -86.3092 348° North 177 204 6,000  Level Chicago Center
Thu 08:28:36 PM 40.3328 -86.3228 348° North 184 212 6,000  Level Chicago Center
Thu 08:29:40 PM 40.3778 -86.3358 348° North 182 209 6,000  Level Chicago Center
Thu 08:30:37 PM 40.4300 -86.3528 346° North 179 206 6,000  Level Chicago Center
Thu 08:31:38 PM 40.4794 -86.3722 343° North 177 204 6,000  Level Chicago Center
Thu 08:32:39 PM 40.5247 -86.3883 345° North 174 200 6,000  Level Chicago Center
Thu 08:33:39 PM 40.5722 -86.4050 345° North 171 197 6,000  Level Chicago Center
Thu 08:34:40 PM 40.6175 -86.4186 347° North 171 197 6,000  Level Chicago Center
Thu 08:35:40 PM 40.6672 -86.4353 346° North 171 197 6,000 -50 Level Chicago Center
Thu 08:36:41 PM 40.7103 -86.4514 344° North 172 198 5,900 -49 Descending Chicago Center
Thu 08:37:42 PM 40.7600 -86.4681 346° North 175 201 5,900  Level Chicago Center
Thu 08:37:57 PM 40.7717 -86.4700 353° North 176 203 5,900 100 Level Chicago Center
Thu 08:38:42 PM 40.8056 -86.4792 348° North 174 200 6,000  Climbing Chicago Center
Thu 08:38:59 PM 40.8194 -86.4819 351° North 175 201 5,900 -98 Descending Chicago Center
Thu 08:39:43 PM 40.8547 -86.4986 340° North 176 203 5,900  Level Chicago Center
Thu 08:40:01 PM 40.8669 -86.4992 358° North 177 204 5,900  Level Chicago Center
Thu 08:41:03 PM 40.9128 -86.5172 343° North 175 201 5,900 48 Level Chicago Center
Thu 08:42:05 PM 40.9600 -86.5350 344° North 176 203 6,000 48 Climbing Chicago Center
Thu 08:43:07 PM 41.0153 -86.5656 337° Northwest 179 206 6,000  Level Chicago Center
Thu 08:44:09 PM 41.0458 -86.6175 308° West 184 212 6,000  Level Chicago Center
Thu 08:45:11 PM 41.0756 -86.6742 305° West 185 213 6,000  Level Chicago Center
Thu 08:46:13 PM 41.1064 -86.7272 308° West 182 209 6,000  Level Chicago Center
Thu 08:47:15 PM 41.1364 -86.7811 306° West 183 211 6,000  Level Chicago Center
Thu 08:48:17 PM 41.1714 -86.8472 305° West 185 213 6,000  Level Chicago Center
Thu 08:49:20 PM 41.2003 -86.9025 305° West 184 212 6,000  Level Chicago Center
Thu 08:50:22 PM 41.2308 -86.9564 307° West 183 211 6,000 -48 Level Chicago Center
Thu 08:51:24 PM 41.2597 -87.0106 305° West 182 209 5,900  Descending Chicago Center
Thu 08:52:26 PM 41.2897 -87.0656 306° West 184 212 6,000 48 Climbing Chicago Center
Thu 08:53:28 PM 41.3242 -87.1322 305° West 184 212 6,000  Level Chicago Center
Thu 08:54:30 PM 41.3544 -87.1869 306° West 184 212 6,000 -339 Level Chicago Center
Thu 08:55:32 PM 41.3864 -87.2464 306° West 191 220 5,300 -532 Descending Chicago Center
Thu 08:56:34 PM 41.4208 -87.3100 306° West 208 239 4,900 -435 Descending Chicago Center
Thu 08:57:36 PM 41.4550 -87.3711 307° West 208 239 4,400 -435 Descending Chicago Center
Thu 08:58:38 PM 41.4944 -87.4453 305° West 207 238 4,000 -194 Descending Chicago Center
Thu 08:59:40 PM 41.5278 -87.5047 307° West 204 235 4,000  Level Chicago Center
Thu 09:00:42 PM 41.5594 -87.5614 307° West 199 229 4,000  Level Chicago Center
Thu 09:01:45 PM 41.5783 -87.6228 292° West 195 224 4,000  Level Chicago Center
Thu 09:02:46 PM 41.5750 -87.6894 266° West 187 215 4,000  Level Chicago Center
Thu 09:03:48 PM 41.5714 -87.7717 267° West 186 214 4,000  Level Chicago Center
Thu 09:04:50 PM 41.5669 -87.8397 265° West 186 214 4,000  Level Chicago Center
Thu 09:05:53 PM 41.5706 -87.9056 274° West 192 221 4,000 -242 Level Chicago Center
Thu 09:06:54 PM 41.5856 -87.9697 287° West 187 215 3,500 -488 Descending Chicago Center
Thu 09:07:56 PM 41.6233 -87.9644 North 181 208 3,000 -532 Descending Chicago Center
Thu 09:08:58 PM 41.6586 -87.9122 48° Northeast 164 189 2,400 -290 Descending Chicago Center
Thu 09:10:00 PM 41.6867 -87.8769 43° Northeast 152 175 2,400  Level Chicago Center
Thu 09:10:32 PM 41.7000 -87.8500 56° Northeast 134 154 2,400 -245 Level Chicago TRACON
Thu 09:11:38 PM 41.7333 -87.8167 37° Northeast 112 129 2,000 -450 Descending Chicago TRACON
Thu 09:12:32 PM 41.7500 -87.8000 37° Northeast 110 127 1,500 -550 Descending Chicago TRACON
Thu 09:13:38 PM 41.7667 -87.7667 56° Northeast 103 119 900 -545 Descending Chicago TRACON

Login

Don't have an account? Register now (free) for customized features, flight alerts, and more!